sensor_id;sensor_type;location;lat;lon;timestamp;P1;durP1;ratioP1;P2;durP2;ratioP2
11763;SDS011;5939;56.522;14.950;2022-07-21T00:00:41;6.13;;;5.53;;
11763;SDS011;5939;56.522;14.950;2022-07-21T00:03:06;5.73;;;5.07;;
11763;SDS011;5939;56.522;14.950;2022-07-21T00:05:32;7.23;;;5.17;;
11763;SDS011;5939;56.522;14.950;2022-07-21T00:07:59;6.67;;;5.47;;
11763;SDS011;5939;56.522;14.950;2022-07-21T00:10:25;8.73;;;5.70;;
11763;SDS011;5939;56.522;14.950;2022-07-21T00:12:52;6.40;;;5.77;;
11763;SDS011;5939;56.522;14.950;2022-07-21T00:15:19;5.47;;;4.93;;
11763;SDS011;5939;56.522;14.950;2022-07-21T00:17:46;6.50;;;5.67;;
11763;SDS011;5939;56.522;14.950;2022-07-21T00:20:13;6.23;;;5.60;;
11763;SDS011;5939;56.522;14.950;2022-07-21T00:22:40;6.03;;;5.40;;
11763;SDS011;5939;56.522;14.950;2022-07-21T00:25:06;6.40;;;5.80;;
11763;SDS011;5939;56.522;14.950;2022-07-21T00:27:33;7.00;;;5.80;;
11763;SDS011;5939;56.522;14.950;2022-07-21T00:29:59;6.23;;;5.33;;
11763;SDS011;5939;56.522;14.950;2022-07-21T00:32:25;7.80;;;5.37;;
11763;SDS011;5939;56.522;14.950;2022-07-21T00:34:51;7.03;;;5.57;;
11763;SDS011;5939;56.522;14.950;2022-07-21T00:37:16;6.77;;;5.17;;
11763;SDS011;5939;56.522;14.950;2022-07-21T00:39:42;8.10;;;5.43;;
11763;SDS011;5939;56.522;14.950;2022-07-21T00:42:08;8.17;;;6.27;;
11763;SDS011;5939;56.522;14.950;2022-07-21T00:44:44;7.67;;;5.27;;
11763;SDS011;5939;56.522;14.950;2022-07-21T00:47:09;6.40;;;5.30;;
11763;SDS011;5939;56.522;14.950;2022-07-21T00:49:35;6.27;;;5.70;;
11763;SDS011;5939;56.522;14.950;2022-07-21T00:52:01;6.57;;;5.80;;
11763;SDS011;5939;56.522;14.950;2022-07-21T00:54:26;8.50;;;5.47;;
11763;SDS011;5939;56.522;14.950;2022-07-21T00:56:52;6.60;;;5.70;;
11763;SDS011;5939;56.522;14.950;2022-07-21T00:59:18;6.67;;;5.40;;
11763;SDS011;5939;56.522;14.950;2022-07-21T01:01:43;6.53;;;5.37;;
11763;SDS011;5939;56.522;14.950;2022-07-21T01:04:09;6.23;;;5.13;;
11763;SDS011;5939;56.522;14.950;2022-07-21T01:06:35;8.60;;;5.90;;
11763;SDS011;5939;56.522;14.950;2022-07-21T01:09:00;7.57;;;5.50;;
11763;SDS011;5939;56.522;14.950;2022-07-21T01:11:26;7.07;;;5.60;;
11763;SDS011;5939;56.522;14.950;2022-07-21T01:13:52;6.77;;;5.53;;
11763;SDS011;5939;56.522;14.950;2022-07-21T01:16:18;6.33;;;5.50;;
11763;SDS011;5939;56.522;14.950;2022-07-21T01:18:45;8.47;;;5.83;;
11763;SDS011;5939;56.522;14.950;2022-07-21T01:21:26;7.63;;;5.73;;
11763;SDS011;5939;56.522;14.950;2022-07-21T01:23:57;6.40;;;5.40;;
11763;SDS011;5939;56.522;14.950;2022-07-21T01:26:23;6.67;;;6.03;;
11763;SDS011;5939;56.522;14.950;2022-07-21T01:28:49;6.17;;;5.50;;
11763;SDS011;5939;56.522;14.950;2022-07-21T01:31:15;9.80;;;5.87;;
11763;SDS011;5939;56.522;14.950;2022-07-21T01:33:41;6.43;;;5.83;;
11763;SDS011;5939;56.522;14.950;2022-07-21T01:36:07;7.17;;;5.97;;
11763;SDS011;5939;56.522;14.950;2022-07-21T01:38:32;9.30;;;5.87;;
11763;SDS011;5939;56.522;14.950;2022-07-21T01:41:16;7.43;;;6.10;;
11763;SDS011;5939;56.522;14.950;2022-07-21T01:43:55;6.50;;;5.90;;
11763;SDS011;5939;56.522;14.950;2022-07-21T01:46:32;6.70;;;5.93;;
11763;SDS011;5939;56.522;14.950;2022-07-21T01:49:02;7.33;;;5.90;;
11763;SDS011;5939;56.522;14.950;2022-07-21T01:51:28;7.00;;;6.30;;
11763;SDS011;5939;56.522;14.950;2022-07-21T01:53:54;6.97;;;6.27;;
11763;SDS011;5939;56.522;14.950;2022-07-21T01:56:21;6.57;;;5.80;;
11763;SDS011;5939;56.522;14.950;2022-07-21T01:58:48;8.20;;;6.20;;
11763;SDS011;5939;56.522;14.950;2022-07-21T02:01:18;7.67;;;6.80;;
11763;SDS011;5939;56.522;14.950;2022-07-21T02:03:44;7.20;;;6.30;;
11763;SDS011;5939;56.522;14.950;2022-07-21T02:06:11;6.27;;;5.67;;
11763;SDS011;5939;56.522;14.950;2022-07-21T02:08:37;7.57;;;6.33;;
11763;SDS011;5939;56.522;14.950;2022-07-21T02:11:03;9.57;;;6.63;;
11763;SDS011;5939;56.522;14.950;2022-07-21T02:13:30;6.57;;;5.97;;
11763;SDS011;5939;56.522;14.950;2022-07-21T02:15:56;6.60;;;6.00;;
11763;SDS011;5939;56.522;14.950;2022-07-21T02:18:22;6.90;;;6.10;;
11763;SDS011;5939;56.522;14.950;2022-07-21T02:20:48;7.77;;;6.10;;
11763;SDS011;5939;56.522;14.950;2022-07-21T02:23:15;6.67;;;5.70;;
11763;SDS011;5939;56.522;14.950;2022-07-21T02:25:44;7.50;;;6.27;;
11763;SDS011;5939;56.522;14.950;2022-07-21T02:28:10;7.30;;;6.60;;
11763;SDS011;5939;56.522;14.950;2022-07-21T02:30:36;10.40;;;6.63;;
11763;SDS011;5939;56.522;14.950;2022-07-21T02:33:02;8.27;;;6.20;;
11763;SDS011;5939;56.522;14.950;2022-07-21T02:35:28;8.40;;;6.50;;
11763;SDS011;5939;56.522;14.950;2022-07-21T02:37:54;8.30;;;6.87;;
11763;SDS011;5939;56.522;14.950;2022-07-21T02:40:19;8.30;;;6.37;;
11763;SDS011;5939;56.522;14.950;2022-07-21T02:42:46;7.70;;;6.20;;
11763;SDS011;5939;56.522;14.950;2022-07-21T02:45:11;8.53;;;6.30;;
11763;SDS011;5939;56.522;14.950;2022-07-21T02:47:47;6.87;;;6.17;;
11763;SDS011;5939;56.522;14.950;2022-07-21T02:50:34;8.50;;;6.60;;
11763;SDS011;5939;56.522;14.950;2022-07-21T02:53:07;7.87;;;7.07;;
11763;SDS011;5939;56.522;14.950;2022-07-21T02:55:34;7.20;;;6.43;;
11763;SDS011;5939;56.522;14.950;2022-07-21T02:58:08;9.17;;;6.50;;
11763;SDS011;5939;56.522;14.950;2022-07-21T03:00:40;8.07;;;6.27;;
11763;SDS011;5939;56.522;14.950;2022-07-21T03:03:08;7.43;;;6.00;;
11763;SDS011;5939;56.522;14.950;2022-07-21T03:05:34;7.90;;;6.20;;
11763;SDS011;5939;56.522;14.950;2022-07-21T03:08:00;6.47;;;5.87;;
11763;SDS011;5939;56.522;14.950;2022-07-21T03:10:26;7.07;;;6.37;;
11763;SDS011;5939;56.522;14.950;2022-07-21T03:12:51;9.20;;;6.10;;
11763;SDS011;5939;56.522;14.950;2022-07-21T03:15:17;7.80;;;5.93;;
11763;SDS011;5939;56.522;14.950;2022-07-21T03:17:43;6.53;;;5.90;;
11763;SDS011;5939;56.522;14.950;2022-07-21T03:20:09;8.40;;;6.80;;
11763;SDS011;5939;56.522;14.950;2022-07-21T03:22:35;8.97;;;6.20;;
11763;SDS011;5939;56.522;14.950;2022-07-21T03:25:01;8.97;;;7.03;;
11763;SDS011;5939;56.522;14.950;2022-07-21T03:27:27;9.17;;;7.60;;
11763;SDS011;5939;56.522;14.950;2022-07-21T03:29:53;7.90;;;7.07;;
11763;SDS011;5939;56.522;14.950;2022-07-21T03:32:18;7.53;;;6.73;;
11763;SDS011;5939;56.522;14.950;2022-07-21T03:34:44;9.67;;;7.03;;
11763;SDS011;5939;56.522;14.950;2022-07-21T03:37:10;7.70;;;6.90;;
11763;SDS011;5939;56.522;14.950;2022-07-21T03:39:36;7.70;;;6.97;;
11763;SDS011;5939;56.522;14.950;2022-07-21T03:42:02;7.97;;;7.17;;
11763;SDS011;5939;56.522;14.950;2022-07-21T03:44:28;7.40;;;6.70;;
11763;SDS011;5939;56.522;14.950;2022-07-21T03:46:54;7.93;;;6.80;;
11763;SDS011;5939;56.522;14.950;2022-07-21T03:49:21;8.30;;;7.50;;
11763;SDS011;5939;56.522;14.950;2022-07-21T03:51:47;8.23;;;7.33;;
11763;SDS011;5939;56.522;14.950;2022-07-21T03:54:13;8.57;;;7.27;;
11763;SDS011;5939;56.522;14.950;2022-07-21T03:56:39;8.60;;;7.70;;
11763;SDS011;5939;56.522;14.950;2022-07-21T03:59:04;9.60;;;7.93;;
11763;SDS011;5939;56.522;14.950;2022-07-21T04:01:30;8.67;;;7.60;;
11763;SDS011;5939;56.522;14.950;2022-07-21T04:03:56;8.47;;;7.27;;
11763;SDS011;5939;56.522;14.950;2022-07-21T04:06:21;10.87;;;7.30;;
11763;SDS011;5939;56.522;14.950;2022-07-21T04:08:47;7.83;;;7.03;;
11763;SDS011;5939;56.522;14.950;2022-07-21T04:11:13;9.03;;;7.63;;
11763;SDS011;5939;56.522;14.950;2022-07-21T04:13:38;8.63;;;7.50;;
11763;SDS011;5939;56.522;14.950;2022-07-21T04:16:04;9.17;;;8.17;;
11763;SDS011;5939;56.522;14.950;2022-07-21T04:18:30;8.27;;;7.37;;
11763;SDS011;5939;56.522;14.950;2022-07-21T04:20:56;10.03;;;8.47;;
11763;SDS011;5939;56.522;14.950;2022-07-21T04:23:21;9.33;;;7.47;;
11763;SDS011;5939;56.522;14.950;2022-07-21T04:25:47;9.03;;;8.13;;
11763;SDS011;5939;56.522;14.950;2022-07-21T04:28:13;9.10;;;8.30;;
11763;SDS011;5939;56.522;14.950;2022-07-21T04:30:38;10.20;;;8.33;;
11763;SDS011;5939;56.522;14.950;2022-07-21T04:33:04;10.80;;;9.27;;
11763;SDS011;5939;56.522;14.950;2022-07-21T04:35:31;10.90;;;9.20;;
11763;SDS011;5939;56.522;14.950;2022-07-21T04:37:57;9.47;;;8.47;;
11763;SDS011;5939;56.522;14.950;2022-07-21T04:40:22;9.80;;;8.80;;
11763;SDS011;5939;56.522;14.950;2022-07-21T04:42:48;10.13;;;9.13;;
11763;SDS011;5939;56.522;14.950;2022-07-21T04:45:14;10.80;;;9.27;;
11763;SDS011;5939;56.522;14.950;2022-07-21T04:47:45;10.83;;;9.67;;
11763;SDS011;5939;56.522;14.950;2022-07-21T04:50:23;11.10;;;8.87;;
11763;SDS011;5939;56.522;14.950;2022-07-21T04:52:50;11.53;;;10.10;;
11763;SDS011;5939;56.522;14.950;2022-07-21T04:55:16;12.27;;;9.43;;
11763;SDS011;5939;56.522;14.950;2022-07-21T04:57:44;11.00;;;9.80;;
11763;SDS011;5939;56.522;14.950;2022-07-21T05:00:12;11.07;;;10.03;;
11763;SDS011;5939;56.522;14.950;2022-07-21T05:02:39;11.40;;;9.90;;
11763;SDS011;5939;56.522;14.950;2022-07-21T05:05:06;10.73;;;9.57;;
11763;SDS011;5939;56.522;14.950;2022-07-21T05:07:32;11.87;;;9.93;;
11763;SDS011;5939;56.522;14.950;2022-07-21T05:09:58;13.97;;;10.27;;
11763;SDS011;5939;56.522;14.950;2022-07-21T05:12:27;10.60;;;9.53;;
11763;SDS011;5939;56.522;14.950;2022-07-21T05:14:53;10.93;;;9.83;;
11763;SDS011;5939;56.522;14.950;2022-07-21T05:17:18;10.47;;;9.47;;
11763;SDS011;5939;56.522;14.950;2022-07-21T05:19:44;11.03;;;9.57;;
11763;SDS011;5939;56.522;14.950;2022-07-21T05:22:13;9.27;;;8.27;;
11763;SDS011;5939;56.522;14.950;2022-07-21T05:24:39;10.93;;;9.33;;
11763;SDS011;5939;56.522;14.950;2022-07-21T05:27:05;9.87;;;8.87;;
11763;SDS011;5939;56.522;14.950;2022-07-21T05:29:30;11.57;;;9.07;;
11763;SDS011;5939;56.522;14.950;2022-07-21T05:31:56;9.80;;;8.60;;
11763;SDS011;5939;56.522;14.950;2022-07-21T05:34:21;11.00;;;8.83;;
11763;SDS011;5939;56.522;14.950;2022-07-21T05:36:47;10.17;;;8.80;;
11763;SDS011;5939;56.522;14.950;2022-07-21T05:39:13;11.37;;;9.23;;
11763;SDS011;5939;56.522;14.950;2022-07-21T05:41:38;11.03;;;8.57;;
11763;SDS011;5939;56.522;14.950;2022-07-21T05:44:04;10.33;;;8.83;;
11763;SDS011;5939;56.522;14.950;2022-07-21T05:46:30;9.83;;;8.60;;
11763;SDS011;5939;56.522;14.950;2022-07-21T05:48:56;9.23;;;8.43;;
11763;SDS011;5939;56.522;14.950;2022-07-21T05:51:21;9.43;;;8.53;;
11763;SDS011;5939;56.522;14.950;2022-07-21T05:53:47;9.57;;;8.50;;
11763;SDS011;5939;56.522;14.950;2022-07-21T05:56:13;12.17;;;8.07;;
11763;SDS011;5939;56.522;14.950;2022-07-21T05:58:38;8.77;;;7.97;;
11763;SDS011;5939;56.522;14.950;2022-07-21T06:01:04;12.40;;;8.30;;
11763;SDS011;5939;56.522;14.950;2022-07-21T06:03:33;9.87;;;8.87;;
11763;SDS011;5939;56.522;14.950;2022-07-21T06:06:00;9.50;;;8.50;;
11763;SDS011;5939;56.522;14.950;2022-07-21T06:08:26;9.50;;;8.60;;
11763;SDS011;5939;56.522;14.950;2022-07-21T06:10:52;9.40;;;8.40;;
11763;SDS011;5939;56.522;14.950;2022-07-21T06:13:17;9.10;;;8.30;;
11763;SDS011;5939;56.522;14.950;2022-07-21T06:15:43;9.87;;;8.87;;
11763;SDS011;5939;56.522;14.950;2022-07-21T06:18:09;9.07;;;8.10;;
11763;SDS011;5939;56.522;14.950;2022-07-21T06:20:34;9.50;;;8.57;;
11763;SDS011;5939;56.522;14.950;2022-07-21T06:23:00;9.43;;;8.53;;
11763;SDS011;5939;56.522;14.950;2022-07-21T06:25:25;9.40;;;8.37;;
11763;SDS011;5939;56.522;14.950;2022-07-21T06:27:51;9.33;;;8.50;;
11763;SDS011;5939;56.522;14.950;2022-07-21T06:30:17;8.47;;;7.53;;
11763;SDS011;5939;56.522;14.950;2022-07-21T06:32:42;8.50;;;7.63;;
11763;SDS011;5939;56.522;14.950;2022-07-21T06:35:08;9.03;;;8.13;;
11763;SDS011;5939;56.522;14.950;2022-07-21T06:37:34;9.63;;;8.63;;
11763;SDS011;5939;56.522;14.950;2022-07-21T06:40:00;8.40;;;7.60;;
11763;SDS011;5939;56.522;14.950;2022-07-21T06:42:26;8.83;;;7.93;;
11763;SDS011;5939;56.522;14.950;2022-07-21T06:44:51;9.00;;;8.07;;
11763;SDS011;5939;56.522;14.950;2022-07-21T06:47:17;9.53;;;8.53;;
11763;SDS011;5939;56.522;14.950;2022-07-21T06:49:42;9.17;;;8.27;;
11763;SDS011;5939;56.522;14.950;2022-07-21T06:52:08;8.63;;;7.77;;
11763;SDS011;5939;56.522;14.950;2022-07-21T06:54:34;8.87;;;8.00;;
11763;SDS011;5939;56.522;14.950;2022-07-21T06:56:59;8.40;;;7.60;;
11763;SDS011;5939;56.522;14.950;2022-07-21T06:59:25;8.73;;;7.73;;
11763;SDS011;5939;56.522;14.950;2022-07-21T07:01:51;9.40;;;8.17;;
11763;SDS011;5939;56.522;14.950;2022-07-21T07:04:16;7.63;;;6.87;;
11763;SDS011;5939;56.522;14.950;2022-07-21T07:06:43;9.43;;;7.60;;
11763;SDS011;5939;56.522;14.950;2022-07-21T07:09:09;8.57;;;7.77;;
11763;SDS011;5939;56.522;14.950;2022-07-21T07:11:34;9.33;;;8.07;;
11763;SDS011;5939;56.522;14.950;2022-07-21T07:14:00;8.43;;;7.63;;
11763;SDS011;5939;56.522;14.950;2022-07-21T07:16:26;9.33;;;7.77;;
11763;SDS011;5939;56.522;14.950;2022-07-21T07:18:51;8.70;;;7.77;;
11763;SDS011;5939;56.522;14.950;2022-07-21T07:21:17;8.20;;;7.40;;
11763;SDS011;5939;56.522;14.950;2022-07-21T07:23:43;8.37;;;7.57;;
11763;SDS011;5939;56.522;14.950;2022-07-21T07:26:08;8.50;;;7.57;;
11763;SDS011;5939;56.522;14.950;2022-07-21T07:28:34;8.07;;;7.17;;
11763;SDS011;5939;56.522;14.950;2022-07-21T07:31:00;9.07;;;6.87;;
11763;SDS011;5939;56.522;14.950;2022-07-21T07:33:25;7.97;;;7.17;;
11763;SDS011;5939;56.522;14.950;2022-07-21T07:35:52;8.37;;;7.57;;
11763;SDS011;5939;56.522;14.950;2022-07-21T07:38:17;7.83;;;7.03;;
11763;SDS011;5939;56.522;14.950;2022-07-21T07:40:43;8.83;;;7.97;;
11763;SDS011;5939;56.522;14.950;2022-07-21T07:43:09;8.07;;;7.27;;
11763;SDS011;5939;56.522;14.950;2022-07-21T07:45:35;7.87;;;7.17;;
11763;SDS011;5939;56.522;14.950;2022-07-21T07:48:01;10.17;;;7.20;;
11763;SDS011;5939;56.522;14.950;2022-07-21T07:50:27;8.13;;;7.33;;
11763;SDS011;5939;56.522;14.950;2022-07-21T07:52:53;9.90;;;7.43;;
11763;SDS011;5939;56.522;14.950;2022-07-21T07:55:19;8.27;;;7.43;;
11763;SDS011;5939;56.522;14.950;2022-07-21T07:57:45;7.40;;;6.70;;
11763;SDS011;5939;56.522;14.950;2022-07-21T08:00:13;8.40;;;6.63;;
11763;SDS011;5939;56.522;14.950;2022-07-21T08:02:40;8.60;;;6.70;;
11763;SDS011;5939;56.522;14.950;2022-07-21T08:05:06;8.30;;;6.60;;
11763;SDS011;5939;56.522;14.950;2022-07-21T08:07:36;10.43;;;7.77;;
11763;SDS011;5939;56.522;14.950;2022-07-21T08:10:04;8.13;;;7.33;;
11763;SDS011;5939;56.522;14.950;2022-07-21T08:12:30;7.77;;;6.83;;
11763;SDS011;5939;56.522;14.950;2022-07-21T08:14:56;7.63;;;6.83;;
11763;SDS011;5939;56.522;14.950;2022-07-21T08:17:22;8.33;;;7.50;;
11763;SDS011;5939;56.522;14.950;2022-07-21T08:19:47;7.60;;;6.90;;
11763;SDS011;5939;56.522;14.950;2022-07-21T08:22:13;7.93;;;7.10;;
11763;SDS011;5939;56.522;14.950;2022-07-21T08:24:39;7.53;;;6.77;;
11763;SDS011;5939;56.522;14.950;2022-07-21T08:27:04;8.63;;;6.87;;
11763;SDS011;5939;56.522;14.950;2022-07-21T08:29:30;7.83;;;7.03;;
11763;SDS011;5939;56.522;14.950;2022-07-21T08:31:56;8.07;;;7.00;;
11763;SDS011;5939;56.522;14.950;2022-07-21T08:34:21;7.93;;;7.07;;
11763;SDS011;5939;56.522;14.950;2022-07-21T08:36:47;7.63;;;6.93;;
11763;SDS011;5939;56.522;14.950;2022-07-21T08:39:13;7.40;;;6.70;;
11763;SDS011;5939;56.522;14.950;2022-07-21T08:41:39;7.40;;;6.70;;
11763;SDS011;5939;56.522;14.950;2022-07-21T08:44:05;7.53;;;6.80;;
11763;SDS011;5939;56.522;14.950;2022-07-21T08:46:35;7.57;;;6.87;;
11763;SDS011;5939;56.522;14.950;2022-07-21T08:49:03;7.73;;;7.03;;
11763;SDS011;5939;56.522;14.950;2022-07-21T08:51:32;7.57;;;6.87;;
11763;SDS011;5939;56.522;14.950;2022-07-21T08:53:59;7.63;;;6.57;;
11763;SDS011;5939;56.522;14.950;2022-07-21T08:56:25;7.33;;;6.47;;
11763;SDS011;5939;56.522;14.950;2022-07-21T08:58:51;7.43;;;6.73;;
11763;SDS011;5939;56.522;14.950;2022-07-21T09:01:16;7.10;;;6.10;;
11763;SDS011;5939;56.522;14.950;2022-07-21T09:03:42;8.03;;;6.60;;
11763;SDS011;5939;56.522;14.950;2022-07-21T09:06:09;7.03;;;6.23;;
11763;SDS011;5939;56.522;14.950;2022-07-21T09:11:16;8.37;;;6.80;;
11763;SDS011;5939;56.522;14.950;2022-07-21T09:14:06;7.20;;;6.50;;
11763;SDS011;5939;56.522;14.950;2022-07-21T09:16:44;8.67;;;6.43;;
11763;SDS011;5939;56.522;14.950;2022-07-21T09:19:24;8.50;;;6.57;;
11763;SDS011;5939;56.522;14.950;2022-07-21T09:21:50;9.00;;;6.77;;
11763;SDS011;5939;56.522;14.950;2022-07-21T09:24:22;7.17;;;6.47;;
11763;SDS011;5939;56.522;14.950;2022-07-21T09:29:34;7.23;;;6.53;;
11763;SDS011;5939;56.522;14.950;2022-07-21T09:32:11;7.33;;;6.63;;
11763;SDS011;5939;56.522;14.950;2022-07-21T09:34:44;7.13;;;6.30;;
11763;SDS011;5939;56.522;14.950;2022-07-21T09:37:19;8.67;;;6.27;;
11763;SDS011;5939;56.522;14.950;2022-07-21T09:39:51;6.90;;;6.20;;
11763;SDS011;5939;56.522;14.950;2022-07-21T09:45:02;6.93;;;6.27;;
11763;SDS011;5939;56.522;14.950;2022-07-21T09:47:31;6.87;;;6.13;;
11763;SDS011;5939;56.522;14.950;2022-07-21T09:49:58;7.37;;;6.30;;
11763;SDS011;5939;56.522;14.950;2022-07-21T09:52:26;6.93;;;6.17;;
11763;SDS011;5939;56.522;14.950;2022-07-21T09:54:57;7.13;;;6.33;;
11763;SDS011;5939;56.522;14.950;2022-07-21T09:57:31;6.77;;;5.80;;
11763;SDS011;5939;56.522;14.950;2022-07-21T09:59:58;6.50;;;5.90;;
11763;SDS011;5939;56.522;14.950;2022-07-21T10:02:25;6.30;;;5.70;;
11763;SDS011;5939;56.522;14.950;2022-07-21T10:07:35;6.90;;;6.00;;
11763;SDS011;5939;56.522;14.950;2022-07-21T10:10:02;6.73;;;6.00;;
11763;SDS011;5939;56.522;14.950;2022-07-21T10:12:29;6.47;;;5.60;;
11763;SDS011;5939;56.522;14.950;2022-07-21T10:14:54;6.27;;;5.67;;
11763;SDS011;5939;56.522;14.950;2022-07-21T10:17:21;5.97;;;5.37;;
11763;SDS011;5939;56.522;14.950;2022-07-21T10:19:52;6.27;;;5.63;;
11763;SDS011;5939;56.522;14.950;2022-07-21T10:22:31;6.03;;;5.23;;
11763;SDS011;5939;56.522;14.950;2022-07-21T10:25:18;6.30;;;5.70;;
11763;SDS011;5939;56.522;14.950;2022-07-21T10:28:11;6.53;;;5.80;;
11763;SDS011;5939;56.522;14.950;2022-07-21T10:30:38;6.20;;;5.60;;
11763;SDS011;5939;56.522;14.950;2022-07-21T10:33:16;5.97;;;5.30;;
11763;SDS011;5939;56.522;14.950;2022-07-21T10:35:47;5.93;;;5.43;;
11763;SDS011;5939;56.522;14.950;2022-07-21T10:38:28;5.90;;;5.23;;
11763;SDS011;5939;56.522;14.950;2022-07-21T10:40:57;6.30;;;5.70;;
11763;SDS011;5939;56.522;14.950;2022-07-21T10:45:53;7.87;;;5.30;;
11763;SDS011;5939;56.522;14.950;2022-07-21T10:51:15;6.30;;;5.70;;
11763;SDS011;5939;56.522;14.950;2022-07-21T10:53:41;5.97;;;5.30;;
11763;SDS011;5939;56.522;14.950;2022-07-21T10:56:10;6.77;;;6.00;;
11763;SDS011;5939;56.522;14.950;2022-07-21T10:58:54;6.77;;;5.57;;
11763;SDS011;5939;56.522;14.950;2022-07-21T11:01:23;6.37;;;5.47;;
11763;SDS011;5939;56.522;14.950;2022-07-21T11:06:51;6.07;;;5.47;;
11763;SDS011;5939;56.522;14.950;2022-07-21T11:09:17;7.23;;;5.17;;
11763;SDS011;5939;56.522;14.950;2022-07-21T11:14:13;6.10;;;5.60;;
11763;SDS011;5939;56.522;14.950;2022-07-21T11:19:26;6.53;;;5.40;;
11763;SDS011;5939;56.522;14.950;2022-07-21T11:24:38;6.27;;;5.67;;
11763;SDS011;5939;56.522;14.950;2022-07-21T11:27:06;5.97;;;5.30;;
11763;SDS011;5939;56.522;14.950;2022-07-21T11:29:34;6.13;;;5.53;;
11763;SDS011;5939;56.522;14.950;2022-07-21T11:32:02;6.87;;;5.33;;
11763;SDS011;5939;56.522;14.950;2022-07-21T11:37:15;5.97;;;5.37;;
11763;SDS011;5939;56.522;14.950;2022-07-21T11:39:55;6.90;;;5.40;;
11763;SDS011;5939;56.522;14.950;2022-07-21T11:42:21;6.13;;;5.50;;
11763;SDS011;5939;56.522;14.950;2022-07-21T11:44:46;6.10;;;5.50;;
11763;SDS011;5939;56.522;14.950;2022-07-21T11:47:13;5.60;;;4.93;;
11763;SDS011;5939;56.522;14.950;2022-07-21T11:49:40;6.07;;;5.47;;
11763;SDS011;5939;56.522;14.950;2022-07-21T11:52:08;6.00;;;5.40;;
11763;SDS011;5939;56.522;14.950;2022-07-21T11:54:37;6.27;;;4.83;;
11763;SDS011;5939;56.522;14.950;2022-07-21T11:57:08;6.90;;;5.30;;
11763;SDS011;5939;56.522;14.950;2022-07-21T11:59:34;6.20;;;5.03;;
11763;SDS011;5939;56.522;14.950;2022-07-21T12:02:05;6.30;;;5.17;;
11763;SDS011;5939;56.522;14.950;2022-07-21T12:04:39;6.10;;;4.97;;
11763;SDS011;5939;56.522;14.950;2022-07-21T12:07:17;6.00;;;5.40;;
11763;SDS011;5939;56.522;14.950;2022-07-21T12:12:34;5.67;;;5.17;;
11763;SDS011;5939;56.522;14.950;2022-07-21T12:15:23;5.33;;;4.83;;
11763;SDS011;5939;56.522;14.950;2022-07-21T12:17:55;6.50;;;4.97;;
11763;SDS011;5939;56.522;14.950;2022-07-21T12:20:37;5.60;;;4.20;;
11763;SDS011;5939;56.522;14.950;2022-07-21T12:23:24;5.73;;;5.13;;
11763;SDS011;5939;56.522;14.950;2022-07-21T12:25:52;5.33;;;4.83;;
11763;SDS011;5939;56.522;14.950;2022-07-21T12:28:18;5.00;;;4.50;;
11763;SDS011;5939;56.522;14.950;2022-07-21T12:30:46;4.60;;;4.20;;
11763;SDS011;5939;56.522;14.950;2022-07-21T12:33:17;5.93;;;4.82;;
11763;SDS011;5939;56.522;14.950;2022-07-21T12:35:56;5.22;;;4.72;;
11763;SDS011;5939;56.522;14.950;2022-07-21T12:38:37;4.70;;;4.30;;
11763;SDS011;5939;56.522;14.950;2022-07-21T12:41:07;6.63;;;4.87;;
11763;SDS011;5939;56.522;14.950;2022-07-21T12:43:34;5.73;;;4.90;;
11763;SDS011;5939;56.522;14.950;2022-07-21T12:48:35;5.13;;;4.63;;
11763;SDS011;5939;56.522;14.950;2022-07-21T12:51:06;6.68;;;4.38;;
11763;SDS011;5939;56.522;14.950;2022-07-21T12:53:47;7.60;;;4.60;;
11763;SDS011;5939;56.522;14.950;2022-07-21T12:56:19;5.50;;;4.90;;
11763;SDS011;5939;56.522;14.950;2022-07-21T12:58:47;4.88;;;4.47;;
11763;SDS011;5939;56.522;14.950;2022-07-21T13:01:15;5.07;;;4.60;;
11763;SDS011;5939;56.522;14.950;2022-07-21T13:03:42;4.82;;;4.43;;
11763;SDS011;5939;56.522;14.950;2022-07-21T13:06:09;4.78;;;4.32;;
11763;SDS011;5939;56.522;14.950;2022-07-21T13:08:35;5.70;;;4.47;;
11763;SDS011;5939;56.522;14.950;2022-07-21T13:11:03;4.88;;;4.47;;
11763;SDS011;5939;56.522;14.950;2022-07-21T13:13:30;7.00;;;4.30;;
11763;SDS011;5939;56.522;14.950;2022-07-21T13:15:56;5.28;;;4.78;;
11763;SDS011;5939;56.522;14.950;2022-07-21T13:18:22;5.57;;;4.45;;
11763;SDS011;5939;56.522;14.950;2022-07-21T13:20:49;5.57;;;4.35;;
11763;SDS011;5939;56.522;14.950;2022-07-21T13:23:15;5.70;;;5.07;;
11763;SDS011;5939;56.522;14.950;2022-07-21T13:25:41;4.97;;;4.47;;
11763;SDS011;5939;56.522;14.950;2022-07-21T13:28:08;8.35;;;5.05;;
11763;SDS011;5939;56.522;14.950;2022-07-21T13:30:33;5.25;;;4.85;;
11763;SDS011;5939;56.522;14.950;2022-07-21T13:32:59;6.68;;;4.57;;
11763;SDS011;5939;56.522;14.950;2022-07-21T13:35:25;5.28;;;4.80;;
11763;SDS011;5939;56.522;14.950;2022-07-21T13:37:52;5.10;;;4.13;;
11763;SDS011;5939;56.522;14.950;2022-07-21T13:40:18;5.45;;;4.68;;
11763;SDS011;5939;56.522;14.950;2022-07-21T13:42:44;5.25;;;4.75;;
11763;SDS011;5939;56.522;14.950;2022-07-21T13:45:09;5.90;;;5.30;;
11763;SDS011;5939;56.522;14.950;2022-07-21T13:47:36;5.53;;;5.00;;
11763;SDS011;5939;56.522;14.950;2022-07-21T13:50:03;6.78;;;5.40;;
11763;SDS011;5939;56.522;14.950;2022-07-21T13:52:31;5.20;;;4.80;;
11763;SDS011;5939;56.522;14.950;2022-07-21T13:54:58;5.75;;;4.40;;
11763;SDS011;5939;56.522;14.950;2022-07-21T13:57:24;5.10;;;4.60;;
11763;SDS011;5939;56.522;14.950;2022-07-21T13:59:49;5.63;;;5.05;;
11763;SDS011;5939;56.522;14.950;2022-07-21T14:02:15;5.53;;;4.43;;
11763;SDS011;5939;56.522;14.950;2022-07-21T14:04:41;6.68;;;4.95;;
11763;SDS011;5939;56.522;14.950;2022-07-21T14:07:07;7.53;;;5.13;;
11763;SDS011;5939;56.522;14.950;2022-07-21T14:09:33;6.07;;;5.20;;
11763;SDS011;5939;56.522;14.950;2022-07-21T14:11:59;6.03;;;5.17;;
11763;SDS011;5939;56.522;14.950;2022-07-21T14:14:24;6.87;;;5.47;;
11763;SDS011;5939;56.522;14.950;2022-07-21T14:16:51;6.77;;;5.20;;
11763;SDS011;5939;56.522;14.950;2022-07-21T14:19:21;5.50;;;5.00;;
11763;SDS011;5939;56.522;14.950;2022-07-21T14:21:47;6.07;;;5.47;;
11763;SDS011;5939;56.522;14.950;2022-07-21T14:24:13;6.10;;;5.50;;
11763;SDS011;5939;56.522;14.950;2022-07-21T14:26:58;6.87;;;5.03;;
11763;SDS011;5939;56.522;14.950;2022-07-21T14:29:23;7.30;;;5.93;;
11763;SDS011;5939;56.522;14.950;2022-07-21T14:31:49;6.43;;;5.80;;
11763;SDS011;5939;56.522;14.950;2022-07-21T14:34:15;7.50;;;6.27;;
11763;SDS011;5939;56.522;14.950;2022-07-21T14:36:41;7.17;;;6.50;;
11763;SDS011;5939;56.522;14.950;2022-07-21T14:39:07;6.60;;;6.00;;
11763;SDS011;5939;56.522;14.950;2022-07-21T14:41:33;6.90;;;6.20;;
11763;SDS011;5939;56.522;14.950;2022-07-21T14:43:59;7.20;;;6.50;;
11763;SDS011;5939;56.522;14.950;2022-07-21T14:46:25;6.33;;;5.73;;
11763;SDS011;5939;56.522;14.950;2022-07-21T14:48:50;7.30;;;6.60;;
11763;SDS011;5939;56.522;14.950;2022-07-21T14:51:16;7.00;;;6.30;;
11763;SDS011;5939;56.522;14.950;2022-07-21T14:53:41;6.83;;;6.23;;
11763;SDS011;5939;56.522;14.950;2022-07-21T14:56:08;8.83;;;6.83;;
11763;SDS011;5939;56.522;14.950;2022-07-21T14:58:34;7.10;;;5.73;;
11763;SDS011;5939;56.522;14.950;2022-07-21T15:00:59;7.00;;;6.37;;
11763;SDS011;5939;56.522;14.950;2022-07-21T15:03:25;7.30;;;6.60;;
11763;SDS011;5939;56.522;14.950;2022-07-21T15:05:51;7.77;;;6.97;;
11763;SDS011;5939;56.522;14.950;2022-07-21T15:08:17;7.43;;;6.73;;
11763;SDS011;5939;56.522;14.950;2022-07-21T15:10:43;7.70;;;6.93;;
11763;SDS011;5939;56.522;14.950;2022-07-21T15:13:09;7.47;;;6.77;;
11763;SDS011;5939;56.522;14.950;2022-07-21T15:15:35;9.63;;;6.80;;
11763;SDS011;5939;56.522;14.950;2022-07-21T15:18:02;7.00;;;6.30;;
11763;SDS011;5939;56.522;14.950;2022-07-21T15:20:28;7.97;;;6.80;;
11763;SDS011;5939;56.522;14.950;2022-07-21T15:22:53;7.70;;;7.00;;